sensor_id;sensor_type;location;lat;lon;timestamp;pressure;altitude;pressure_sealevel;temperature;humidity
61488;BME280;47351;53.326;-6.298;2023-04-27T00:01:08;101241.13;;;9.73;62.39
61488;BME280;47351;53.326;-6.298;2023-04-27T00:03:59;101239.80;;;9.72;62.46
61488;BME280;47351;53.326;-6.298;2023-04-27T00:06:52;101237.72;;;9.72;62.60
61488;BME280;47351;53.326;-6.298;2023-04-27T00:09:50;101236.71;;;9.71;62.59
61488;BME280;47351;53.326;-6.298;2023-04-27T00:12:40;101237.91;;;9.70;62.69
61488;BME280;47351;53.326;-6.298;2023-04-27T00:15:30;101235.04;;;9.70;62.70
61488;BME280;47351;53.326;-6.298;2023-04-27T00:18:21;101228.59;;;9.70;62.58
61488;BME280;47351;53.326;-6.298;2023-04-27T00:21:14;101228.39;;;9.72;62.57
61488;BME280;47351;53.326;-6.298;2023-04-27T00:24:05;101231.98;;;9.76;62.75
61488;BME280;47351;53.326;-6.298;2023-04-27T00:26:55;101227.07;;;9.77;62.56
61488;BME280;47351;53.326;-6.298;2023-04-27T00:29:45;101229.27;;;9.79;62.71
61488;BME280;47351;53.326;-6.298;2023-04-27T00:32:35;101234.08;;;9.82;62.79
61488;BME280;47351;53.326;-6.298;2023-04-27T00:35:26;101231.95;;;9.84;62.77
61488;BME280;47351;53.326;-6.298;2023-04-27T00:38:16;101232.71;;;9.88;62.97
61488;BME280;47351;53.326;-6.298;2023-04-27T00:41:06;101230.46;;;9.91;62.89
61488;BME280;47351;53.326;-6.298;2023-04-27T00:44:05;101230.26;;;9.93;62.90
61488;BME280;47351;53.326;-6.298;2023-04-27T00:46:55;101221.70;;;9.95;63.03
61488;BME280;47351;53.326;-6.298;2023-04-27T00:49:47;101213.81;;;9.97;63.04
61488;BME280;47351;53.326;-6.298;2023-04-27T00:52:38;101206.43;;;9.98;63.02
61488;BME280;47351;53.326;-6.298;2023-04-27T00:55:29;101198.08;;;9.98;63.01
61488;BME280;47351;53.326;-6.298;2023-04-27T00:58:19;101191.71;;;9.97;62.89
61488;BME280;47351;53.326;-6.298;2023-04-27T01:01:10;101186.27;;;9.96;62.86
61488;BME280;47351;53.326;-6.298;2023-04-27T01:04:01;101184.05;;;9.95;62.85
61488;BME280;47351;53.326;-6.298;2023-04-27T01:06:51;101174.67;;;9.96;62.55
61488;BME280;47351;53.326;-6.298;2023-04-27T01:09:53;101174.53;;;9.98;62.31
61488;BME280;47351;53.326;-6.298;2023-04-27T01:12:44;101171.72;;;9.99;62.28
61488;BME280;47351;53.326;-6.298;2023-04-27T01:15:34;101168.98;;;10.00;61.97
61488;BME280;47351;53.326;-6.298;2023-04-27T01:18:24;101165.16;;;10.01;61.96
61488;BME280;47351;53.326;-6.298;2023-04-27T01:21:17;101162.50;;;10.03;61.79
61488;BME280;47351;53.326;-6.298;2023-04-27T01:24:08;101158.55;;;10.03;61.57
61488;BME280;47351;53.326;-6.298;2023-04-27T01:26:58;101150.20;;;10.02;61.39
61488;BME280;47351;53.326;-6.298;2023-04-27T01:29:49;101140.29;;;10.02;61.62
61488;BME280;47351;53.326;-6.298;2023-04-27T01:32:39;101133.58;;;10.01;61.81
61488;BME280;47351;53.326;-6.298;2023-04-27T01:35:30;101130.13;;;9.98;61.82
61488;BME280;47351;53.326;-6.298;2023-04-27T01:38:20;101123.80;;;9.95;62.14
61488;BME280;47351;53.326;-6.298;2023-04-27T01:41:12;101118.23;;;9.93;62.35
61488;BME280;47351;53.326;-6.298;2023-04-27T01:44:02;101111.84;;;9.93;62.35
61488;BME280;47351;53.326;-6.298;2023-04-27T01:46:52;101107.37;;;9.91;62.51
61488;BME280;47351;53.326;-6.298;2023-04-27T01:49:45;101099.35;;;9.91;62.65
61488;BME280;47351;53.326;-6.298;2023-04-27T01:52:36;101088.79;;;9.92;62.82
61488;BME280;47351;53.326;-6.298;2023-04-27T01:55:26;101084.42;;;9.91;62.73
61488;BME280;47351;53.326;-6.298;2023-04-27T01:58:16;101085.36;;;9.88;62.90
61488;BME280;47351;53.326;-6.298;2023-04-27T02:01:06;101084.18;;;9.86;62.92
61488;BME280;47351;53.326;-6.298;2023-04-27T02:03:57;101084.48;;;9.85;63.08
61488;BME280;47351;53.326;-6.298;2023-04-27T02:06:47;101087.34;;;9.83;63.18
61488;BME280;47351;53.326;-6.298;2023-04-27T02:09:40;101089.91;;;9.82;63.31
61488;BME280;47351;53.326;-6.298;2023-04-27T02:12:32;101089.84;;;9.83;63.69
61488;BME280;47351;53.326;-6.298;2023-04-27T02:15:24;101097.09;;;9.82;63.86
61488;BME280;47351;53.326;-6.298;2023-04-27T02:18:14;101091.55;;;9.80;63.97
61488;BME280;47351;53.326;-6.298;2023-04-27T02:21:08;101091.34;;;9.80;64.00
61488;BME280;47351;53.326;-6.298;2023-04-27T02:23:59;101084.56;;;9.80;64.34
61488;BME280;47351;53.326;-6.298;2023-04-27T02:26:49;101079.77;;;9.81;64.52
61488;BME280;47351;53.326;-6.298;2023-04-27T02:29:42;101075.72;;;9.85;64.81
61488;BME280;47351;53.326;-6.298;2023-04-27T02:32:33;101075.80;;;9.90;65.08
61488;BME280;47351;53.326;-6.298;2023-04-27T02:35:23;101072.92;;;9.96;65.27
61488;BME280;47351;53.326;-6.298;2023-04-27T02:38:13;101068.58;;;10.02;65.30
61488;BME280;47351;53.326;-6.298;2023-04-27T02:41:04;101067.51;;;10.09;65.50
61488;BME280;47351;53.326;-6.298;2023-04-27T02:43:56;101061.58;;;10.16;65.51
61488;BME280;47351;53.326;-6.298;2023-04-27T02:46:47;101059.21;;;10.22;65.57
61488;BME280;47351;53.326;-6.298;2023-04-27T02:49:37;101055.80;;;10.28;65.51
61488;BME280;47351;53.326;-6.298;2023-04-27T02:52:35;101051.59;;;10.31;65.60
61488;BME280;47351;53.326;-6.298;2023-04-27T02:55:30;101052.29;;;10.33;65.87
61488;BME280;47351;53.326;-6.298;2023-04-27T02:58:20;101047.30;;;10.34;66.03
61488;BME280;47351;53.326;-6.298;2023-04-27T03:01:11;101045.08;;;10.35;66.18
61488;BME280;47351;53.326;-6.298;2023-04-27T03:04:01;101049.35;;;10.35;66.47
61488;BME280;47351;53.326;-6.298;2023-04-27T03:06:52;101049.08;;;10.35;66.70
61488;BME280;47351;53.326;-6.298;2023-04-27T03:09:42;101049.88;;;10.35;66.75
61488;BME280;47351;53.326;-6.298;2023-04-27T03:12:32;101045.07;;;10.35;66.90
61488;BME280;47351;53.326;-6.298;2023-04-27T03:15:22;101037.82;;;10.37;67.15
61488;BME280;47351;53.326;-6.298;2023-04-27T03:18:13;101039.69;;;10.39;67.38
61488;BME280;47351;53.326;-6.298;2023-04-27T03:21:07;101030.88;;;10.40;67.35
61488;BME280;47351;53.326;-6.298;2023-04-27T03:23:58;101028.02;;;10.40;67.56
61488;BME280;47351;53.326;-6.298;2023-04-27T03:26:48;101029.88;;;10.41;68.12
61488;BME280;47351;53.326;-6.298;2023-04-27T03:29:41;101023.37;;;10.42;68.55
61488;BME280;47351;53.326;-6.298;2023-04-27T03:32:32;101024.96;;;10.44;68.82
61488;BME280;47351;53.326;-6.298;2023-04-27T03:35:22;101017.98;;;10.46;69.06
61488;BME280;47351;53.326;-6.298;2023-04-27T03:38:12;101013.20;;;10.48;69.40
61488;BME280;47351;53.326;-6.298;2023-04-27T03:41:03;101014.47;;;10.49;69.46
61488;BME280;47351;53.326;-6.298;2023-04-27T03:43:53;101009.65;;;10.51;69.51
61488;BME280;47351;53.326;-6.298;2023-04-27T03:46:43;101012.55;;;10.54;69.82
61488;BME280;47351;53.326;-6.298;2023-04-27T03:49:34;101008.21;;;10.56;70.07
61488;BME280;47351;53.326;-6.298;2023-04-27T03:52:24;101001.04;;;10.58;70.41
61488;BME280;47351;53.326;-6.298;2023-04-27T03:55:15;100995.52;;;10.62;70.62
61488;BME280;47351;53.326;-6.298;2023-04-27T03:58:06;100991.27;;;10.65;70.35
61488;BME280;47351;53.326;-6.298;2023-04-27T04:00:59;100998.54;;;10.70;70.50
61488;BME280;47351;53.326;-6.298;2023-04-27T04:03:49;100995.03;;;10.74;70.60
61488;BME280;47351;53.326;-6.298;2023-04-27T04:06:40;100994.86;;;10.78;70.68
61488;BME280;47351;53.326;-6.298;2023-04-27T04:09:32;100989.67;;;10.80;70.74
61488;BME280;47351;53.326;-6.298;2023-04-27T04:12:22;100985.92;;;10.81;70.81
61488;BME280;47351;53.326;-6.298;2023-04-27T04:15:13;100988.80;;;10.83;70.91
61488;BME280;47351;53.326;-6.298;2023-04-27T04:18:04;100991.49;;;10.86;71.20
61488;BME280;47351;53.326;-6.298;2023-04-27T04:20:57;100987.55;;;10.87;71.02
61488;BME280;47351;53.326;-6.298;2023-04-27T04:23:48;100982.45;;;10.86;71.12
61488;BME280;47351;53.326;-6.298;2023-04-27T04:26:39;100989.68;;;10.85;71.12
61488;BME280;47351;53.326;-6.298;2023-04-27T04:29:29;100983.60;;;10.83;71.09
61488;BME280;47351;53.326;-6.298;2023-04-27T04:32:20;100977.74;;;10.83;71.28
61488;BME280;47351;53.326;-6.298;2023-04-27T04:35:11;100978.27;;;10.81;71.36
61488;BME280;47351;53.326;-6.298;2023-04-27T04:38:04;100978.15;;;10.79;71.43
61488;BME280;47351;53.326;-6.298;2023-04-27T04:40:55;100966.61;;;10.73;71.44
61488;BME280;47351;53.326;-6.298;2023-04-27T04:43:45;100964.06;;;10.66;71.49
61488;BME280;47351;53.326;-6.298;2023-04-27T04:46:38;100962.67;;;10.62;71.81
61488;BME280;47351;53.326;-6.298;2023-04-27T04:49:28;100964.66;;;10.60;72.03
61488;BME280;47351;53.326;-6.298;2023-04-27T04:52:18;100965.48;;;10.57;72.23
61488;BME280;47351;53.326;-6.298;2023-04-27T04:55:10;100966.52;;;10.54;72.29
61488;BME280;47351;53.326;-6.298;2023-04-27T04:58:00;100963.66;;;10.50;72.65
61488;BME280;47351;53.326;-6.298;2023-04-27T05:00:52;100962.19;;;10.47;72.93
61488;BME280;47351;53.326;-6.298;2023-04-27T05:03:43;100954.98;;;10.42;73.16
61488;BME280;47351;53.326;-6.298;2023-04-27T05:06:33;100948.90;;;10.37;73.52
61488;BME280;47351;53.326;-6.298;2023-04-27T05:09:23;100951.55;;;10.32;73.92
61488;BME280;47351;53.326;-6.298;2023-04-27T05:12:13;100959.63;;;10.28;74.20
61488;BME280;47351;53.326;-6.298;2023-04-27T05:15:04;100953.86;;;10.27;74.59
61488;BME280;47351;53.326;-6.298;2023-04-27T05:17:55;100956.46;;;10.28;75.06
61488;BME280;47351;53.326;-6.298;2023-04-27T05:20:46;100957.35;;;10.30;75.29
61488;BME280;47351;53.326;-6.298;2023-04-27T05:23:36;100954.00;;;10.33;75.50
61488;BME280;47351;53.326;-6.298;2023-04-27T05:26:26;100956.45;;;10.36;75.64
61488;BME280;47351;53.326;-6.298;2023-04-27T05:29:19;100956.85;;;10.42;75.74
61488;BME280;47351;53.326;-6.298;2023-04-27T05:32:09;100955.34;;;10.46;75.84
61488;BME280;47351;53.326;-6.298;2023-04-27T05:35:00;100954.63;;;10.50;75.72
61488;BME280;47351;53.326;-6.298;2023-04-27T05:37:50;100950.75;;;10.53;75.65
61488;BME280;47351;53.326;-6.298;2023-04-27T05:40:41;100940.25;;;10.54;75.60
61488;BME280;47351;53.326;-6.298;2023-04-27T05:43:31;100934.09;;;10.55;75.62
61488;BME280;47351;53.326;-6.298;2023-04-27T05:46:22;100936.04;;;10.54;75.68
61488;BME280;47351;53.326;-6.298;2023-04-27T05:49:13;100934.83;;;10.53;75.69
61488;BME280;47351;53.326;-6.298;2023-04-27T05:52:03;100934.67;;;10.51;75.77
61488;BME280;47351;53.326;-6.298;2023-04-27T05:54:54;100937.48;;;10.48;75.79
61488;BME280;47351;53.326;-6.298;2023-04-27T05:57:44;100937.27;;;10.47;75.88
61488;BME280;47351;53.326;-6.298;2023-04-27T06:00:44;100935.07;;;10.47;76.14
61488;BME280;47351;53.326;-6.298;2023-04-27T06:03:35;100936.52;;;10.47;76.15
61488;BME280;47351;53.326;-6.298;2023-04-27T06:06:25;100939.48;;;10.48;76.21
61488;BME280;47351;53.326;-6.298;2023-04-27T06:09:17;100939.42;;;10.46;76.33
61488;BME280;47351;53.326;-6.298;2023-04-27T06:12:07;100941.06;;;10.46;76.47
61488;BME280;47351;53.326;-6.298;2023-04-27T06:14:58;100937.02;;;10.48;76.51
61488;BME280;47351;53.326;-6.298;2023-04-27T06:17:48;100932.20;;;10.48;76.52
61488;BME280;47351;53.326;-6.298;2023-04-27T06:20:38;100928.58;;;10.48;76.51
61488;BME280;47351;53.326;-6.298;2023-04-27T06:23:30;100925.42;;;10.47;76.64
61488;BME280;47351;53.326;-6.298;2023-04-27T06:26:20;100918.14;;;10.47;76.68
61488;BME280;47351;53.326;-6.298;2023-04-27T06:29:10;100910.81;;;10.47;76.78
61488;BME280;47351;53.326;-6.298;2023-04-27T06:32:01;100908.14;;;10.49;76.99
61488;BME280;47351;53.326;-6.298;2023-04-27T06:34:54;100909.23;;;10.50;77.14
61488;BME280;47351;53.326;-6.298;2023-04-27T06:37:44;100903.05;;;10.51;77.24
61488;BME280;47351;53.326;-6.298;2023-04-27T06:40:35;100902.21;;;10.55;77.30
61488;BME280;47351;53.326;-6.298;2023-04-27T06:43:26;100905.14;;;10.56;77.11
61488;BME280;47351;53.326;-6.298;2023-04-27T06:46:16;100901.54;;;10.58;77.26
61488;BME280;47351;53.326;-6.298;2023-04-27T06:49:06;100896.84;;;10.60;77.10
61488;BME280;47351;53.326;-6.298;2023-04-27T06:52:00;100898.01;;;10.61;77.09
61488;BME280;47351;53.326;-6.298;2023-04-27T06:54:50;100898.51;;;10.61;76.84
61488;BME280;47351;53.326;-6.298;2023-04-27T06:57:41;100897.03;;;10.62;76.78
61488;BME280;47351;53.326;-6.298;2023-04-27T07:00:31;100897.46;;;10.63;76.61
61488;BME280;47351;53.326;-6.298;2023-04-27T07:03:21;100894.42;;;10.64;76.56
61488;BME280;47351;53.326;-6.298;2023-04-27T07:06:12;100899.61;;;10.64;76.54
61488;BME280;47351;53.326;-6.298;2023-04-27T07:09:02;100896.21;;;10.66;76.46
61488;BME280;47351;53.326;-6.298;2023-04-27T07:12:08;100891.77;;;10.70;76.36
61488;BME280;47351;53.326;-6.298;2023-04-27T07:14:58;100891.11;;;10.75;76.39
61488;BME280;47351;53.326;-6.298;2023-04-27T07:17:51;100891.67;;;10.78;76.32
61488;BME280;47351;53.326;-6.298;2023-04-27T07:20:42;100897.57;;;10.83;76.26
61488;BME280;47351;53.326;-6.298;2023-04-27T07:23:32;100896.85;;;10.86;76.02
61488;BME280;47351;53.326;-6.298;2023-04-27T07:26:22;100900.20;;;10.89;76.16
61488;BME280;47351;53.326;-6.298;2023-04-27T07:29:12;100896.89;;;10.91;76.24
61488;BME280;47351;53.326;-6.298;2023-04-27T07:32:15;100899.09;;;10.98;75.98
61488;BME280;47351;53.326;-6.298;2023-04-27T07:35:06;100897.64;;;11.07;75.91
61488;BME280;47351;53.326;-6.298;2023-04-27T07:37:57;100902.34;;;11.13;75.90
61488;BME280;47351;53.326;-6.298;2023-04-27T07:40:48;100900.08;;;11.26;75.84
61488;BME280;47351;53.326;-6.298;2023-04-27T07:43:38;100897.92;;;11.44;75.33
61488;BME280;47351;53.326;-6.298;2023-04-27T07:46:30;100901.90;;;11.64;75.10
61488;BME280;47351;53.326;-6.298;2023-04-27T07:49:20;100902.63;;;11.83;74.70
61488;BME280;47351;53.326;-6.298;2023-04-27T07:52:11;100900.42;;;12.07;74.10
61488;BME280;47351;53.326;-6.298;2023-04-27T07:55:01;100891.93;;;12.20;73.61
61488;BME280;47351;53.326;-6.298;2023-04-27T07:57:52;100889.11;;;12.30;73.11
61488;BME280;47351;53.326;-6.298;2023-04-27T08:00:43;100890.14;;;12.30;72.67
61488;BME280;47351;53.326;-6.298;2023-04-27T08:03:33;100882.28;;;12.24;72.49
61488;BME280;47351;53.326;-6.298;2023-04-27T08:06:23;100880.59;;;12.19;72.26
61488;BME280;47351;53.326;-6.298;2023-04-27T08:09:17;100881.42;;;12.14;72.14
61488;BME280;47351;53.326;-6.298;2023-04-27T08:12:07;100878.09;;;12.15;72.05
61488;BME280;47351;53.326;-6.298;2023-04-27T08:14:57;100882.28;;;12.23;72.19
61488;BME280;47351;53.326;-6.298;2023-04-27T08:17:48;100884.96;;;12.23;71.94
61488;BME280;47351;53.326;-6.298;2023-04-27T08:20:40;100883.61;;;12.17;71.83
61488;BME280;47351;53.326;-6.298;2023-04-27T08:23:30;100880.17;;;12.11;71.89
61488;BME280;47351;53.326;-6.298;2023-04-27T08:26:21;100873.11;;;12.05;72.21
61488;BME280;47351;53.326;-6.298;2023-04-27T08:29:13;100870.71;;;12.01;72.30
61488;BME280;47351;53.326;-6.298;2023-04-27T08:32:17;100865.24;;;11.97;72.31
61488;BME280;47351;53.326;-6.298;2023-04-27T08:35:08;100862.86;;;11.90;72.26
61488;BME280;47351;53.326;-6.298;2023-04-27T08:37:59;100860.61;;;11.84;72.54
61488;BME280;47351;53.326;-6.298;2023-04-27T08:40:49;100854.77;;;11.84;73.00
61488;BME280;47351;53.326;-6.298;2023-04-27T08:43:40;100848.31;;;11.84;72.69
61488;BME280;47351;53.326;-6.298;2023-04-27T08:46:32;100844.64;;;11.88;72.54
61488;BME280;47351;53.326;-6.298;2023-04-27T08:49:23;100846.73;;;11.89;72.25
61488;BME280;47351;53.326;-6.298;2023-04-27T08:52:13;100846.60;;;11.90;72.34
61488;BME280;47351;53.326;-6.298;2023-04-27T08:55:04;100842.04;;;11.86;72.26
61488;BME280;47351;53.326;-6.298;2023-04-27T08:57:56;100838.55;;;11.80;72.38
61488;BME280;47351;53.326;-6.298;2023-04-27T09:00:48;100831.82;;;11.79;72.54
61488;BME280;47351;53.326;-6.298;2023-04-27T09:03:40;100825.49;;;11.80;72.62
61488;BME280;47351;53.326;-6.298;2023-04-27T09:06:31;100822.92;;;11.82;72.67
61488;BME280;47351;53.326;-6.298;2023-04-27T09:09:22;100816.63;;;11.91;72.77
61488;BME280;47351;53.326;-6.298;2023-04-27T09:12:17;100815.98;;;11.97;72.44
61488;BME280;47351;53.326;-6.298;2023-04-27T09:15:09;100815.52;;;11.98;72.44
61488;BME280;47351;53.326;-6.298;2023-04-27T09:17:59;100815.59;;;11.92;72.24
61488;BME280;47351;53.326;-6.298;2023-04-27T09:20:50;100816.45;;;11.83;72.28
61488;BME280;47351;53.326;-6.298;2023-04-27T09:23:40;100813.55;;;11.76;72.46
61488;BME280;47351;53.326;-6.298;2023-04-27T09:26:32;100817.77;;;11.74;72.71
61488;BME280;47351;53.326;-6.298;2023-04-27T09:29:32;100817.95;;;11.72;73.06
61488;BME280;47351;53.326;-6.298;2023-04-27T09:32:22;100816.55;;;11.70;73.26
61488;BME280;47351;53.326;-6.298;2023-04-27T09:35:19;100819.40;;;11.70;73.49
61488;BME280;47351;53.326;-6.298;2023-04-27T09:38:10;100820.84;;;11.70;73.44
61488;BME280;47351;53.326;-6.298;2023-04-27T09:41:02;100811.27;;;11.65;73.53
61488;BME280;47351;53.326;-6.298;2023-04-27T09:43:52;100810.98;;;11.62;73.77
61488;BME280;47351;53.326;-6.298;2023-04-27T09:46:45;100802.27;;;11.63;73.94
61488;BME280;47351;53.326;-6.298;2023-04-27T09:49:36;100794.88;;;11.67;74.05
61488;BME280;47351;53.326;-6.298;2023-04-27T09:52:27;100795.12;;;11.70;74.10
61488;BME280;47351;53.326;-6.298;2023-04-27T09:55:23;100793.13;;;11.73;74.09
61488;BME280;47351;53.326;-6.298;2023-04-27T10:01:20;100783.97;;;11.91;74.15
61488;BME280;47351;53.326;-6.298;2023-04-27T10:07:19;100773.29;;;12.08;73.58
61488;BME280;47351;53.326;-6.298;2023-04-27T10:10:15;100770.48;;;12.06;73.53
61488;BME280;47351;53.326;-6.298;2023-04-27T10:13:07;100769.19;;;12.01;73.40
61488;BME280;47351;53.326;-6.298;2023-04-27T10:15:57;100771.42;;;12.01;73.46
61488;BME280;47351;53.326;-6.298;2023-04-27T10:18:51;100768.65;;;11.98;73.49
61488;BME280;47351;53.326;-6.298;2023-04-27T10:21:52;100766.70;;;11.96;73.51
61488;BME280;47351;53.326;-6.298;2023-04-27T10:24:42;100763.66;;;12.01;73.68
61488;BME280;47351;53.326;-6.298;2023-04-27T10:27:38;100762.65;;;12.17;73.53
61488;BME280;47351;53.326;-6.298;2023-04-27T10:30:32;100764.20;;;12.18;73.06
61488;BME280;47351;53.326;-6.298;2023-04-27T10:33:22;100764.41;;;12.26;73.28
61488;BME280;47351;53.326;-6.298;2023-04-27T10:36:14;100763.76;;;12.46;73.35
61488;BME280;47351;53.326;-6.298;2023-04-27T10:39:14;100764.08;;;12.60;72.89
61488;BME280;47351;53.326;-6.298;2023-04-27T10:42:06;100757.17;;;12.58;72.29
61488;BME280;47351;53.326;-6.298;2023-04-27T10:44:56;100758.09;;;12.52;72.32
61488;BME280;47351;53.326;-6.298;2023-04-27T10:47:47;100756.71;;;12.44;72.49
61488;BME280;47351;53.326;-6.298;2023-04-27T10:50:37;100751.45;;;12.38;72.45
61488;BME280;47351;53.326;-6.298;2023-04-27T10:53:28;100749.20;;;12.37;72.40
61488;BME280;47351;53.326;-6.298;2023-04-27T10:56:22;100745.31;;;12.42;72.44
61488;BME280;47351;53.326;-6.298;2023-04-27T10:59:13;100749.50;;;12.44;72.55
61488;BME280;47351;53.326;-6.298;2023-04-27T11:02:03;100746.11;;;12.39;72.63
61488;BME280;47351;53.326;-6.298;2023-04-27T11:04:54;100742.98;;;12.30;72.90
61488;BME280;47351;53.326;-6.298;2023-04-27T11:07:44;100744.38;;;12.22;72.99
61488;BME280;47351;53.326;-6.298;2023-04-27T11:10:37;100737.63;;;12.22;73.42
61488;BME280;47351;53.326;-6.298;2023-04-27T11:13:27;100730.98;;;12.25;73.53
61488;BME280;47351;53.326;-6.298;2023-04-27T11:16:18;100723.98;;;12.31;73.41
61488;BME280;47351;53.326;-6.298;2023-04-27T11:19:08;100722.73;;;12.40;73.24
61488;BME280;47351;53.326;-6.298;2023-04-27T11:22:05;100718.30;;;12.58;73.23
61488;BME280;47351;53.326;-6.298;2023-04-27T11:24:55;100711.27;;;12.76;72.92
61488;BME280;47351;53.326;-6.298;2023-04-27T11:27:45;100707.11;;;12.87;72.86
61488;BME280;47351;53.326;-6.298;2023-04-27T11:30:35;100702.46;;;12.90;72.26
61488;BME280;47351;53.326;-6.298;2023-04-27T11:33:26;100698.09;;;12.91;72.12
61488;BME280;47351;53.326;-6.298;2023-04-27T11:36:17;100701.49;;;12.97;72.13
61488;BME280;47351;53.326;-6.298;2023-04-27T11:39:07;100702.16;;;13.06;72.26
61488;BME280;47351;53.326;-6.298;2023-04-27T11:42:02;100704.64;;;13.07;72.17
61488;BME280;47351;53.326;-6.298;2023-04-27T11:45:03;100699.34;;;13.05;71.89
61488;BME280;47351;53.326;-6.298;2023-04-27T11:47:56;100702.33;;;12.99;72.10
61488;BME280;47351;53.326;-6.298;2023-04-27T11:50:47;100699.33;;;12.92;72.02
61488;BME280;47351;53.326;-6.298;2023-04-27T11:53:38;100696.95;;;12.90;72.05
61488;BME280;47351;53.326;-6.298;2023-04-27T11:56:36;100690.52;;;12.85;71.98
61488;BME280;47351;53.326;-6.298;2023-04-27T11:59:27;100688.61;;;12.77;72.09
61488;BME280;47351;53.326;-6.298;2023-04-27T12:02:17;100685.73;;;12.69;72.40
61488;BME280;47351;53.326;-6.298;2023-04-27T12:05:08;100682.48;;;12.66;72.61
61488;BME280;47351;53.326;-6.298;2023-04-27T12:08:00;100680.73;;;12.67;72.95
61488;BME280;47351;53.326;-6.298;2023-04-27T12:10:50;100679.73;;;12.69;73.04
61488;BME280;47351;53.326;-6.298;2023-04-27T12:13:41;100679.98;;;12.73;72.79
61488;BME280;47351;53.326;-6.298;2023-04-27T12:16:31;100680.64;;;12.77;72.85
61488;BME280;47351;53.326;-6.298;2023-04-27T12:19:22;100679.48;;;12.99;72.66
61488;BME280;47351;53.326;-6.298;2023-04-27T12:22:14;100674.90;;;13.17;72.65
61488;BME280;47351;53.326;-6.298;2023-04-27T12:25:05;100675.27;;;13.28;72.32
61488;BME280;47351;53.326;-6.298;2023-04-27T12:27:55;100675.29;;;13.38;72.18
61488;BME280;47351;53.326;-6.298;2023-04-27T12:30:45;100677.05;;;13.47;71.94
61488;BME280;47351;53.326;-6.298;2023-04-27T12:33:37;100676.38;;;13.51;71.92
61488;BME280;47351;53.326;-6.298;2023-04-27T12:36:27;100673.87;;;13.63;71.50
61488;BME280;47351;53.326;-6.298;2023-04-27T12:39:18;100672.73;;;14.00;70.99
61488;BME280;47351;53.326;-6.298;2023-04-27T12:42:08;100672.95;;;14.36;70.49
61488;BME280;47351;53.326;-6.298;2023-04-27T12:44:59;100671.41;;;14.83;69.34
61488;BME280;47351;53.326;-6.298;2023-04-27T12:47:49;100667.66;;;15.11;68.53
61488;BME280;47351;53.326;-6.298;2023-04-27T12:50:51;100657.82;;;15.74;67.24
61488;BME280;47351;53.326;-6.298;2023-04-27T12:53:41;100652.02;;;16.67;65.15
61488;BME280;47351;53.326;-6.298;2023-04-27T12:56:31;100647.40;;;16.78;64.35
61488;BME280;47351;53.326;-6.298;2023-04-27T12:59:21;100646.52;;;16.86;63.45
61488;BME280;47351;53.326;-6.298;2023-04-27T13:02:12;100645.11;;;17.22;62.81
61488;BME280;47351;53.326;-6.298;2023-04-27T13:05:02;100647.48;;;17.17;62.37
61488;BME280;47351;53.326;-6.298;2023-04-27T13:07:55;100645.44;;;16.86;62.81
61488;BME280;47351;53.326;-6.298;2023-04-27T13:10:45;100645.31;;;16.52;62.73
61488;BME280;47351;53.326;-6.298;2023-04-27T13:13:35;100638.10;;;16.37;62.51
61488;BME280;47351;53.326;-6.298;2023-04-27T13:16:26;100637.39;;;16.76;61.97
61488;BME280;47351;53.326;-6.298;2023-04-27T13:19:16;100628.43;;;17.65;60.12
61488;BME280;47351;53.326;-6.298;2023-04-27T13:22:06;100631.41;;;17.55;59.97
61488;BME280;47351;53.326;-6.298;2023-04-27T13:24:58;100627.29;;;17.32;60.45
61488;BME280;47351;53.326;-6.298;2023-04-27T13:27:48;100623.01;;;17.04;59.86
61488;BME280;47351;53.326;-6.298;2023-04-27T13:30:39;100621.60;;;16.57;60.50
61488;BME280;47351;53.326;-6.298;2023-04-27T13:33:30;100627.86;;;16.06;61.65
61488;BME280;47351;53.326;-6.298;2023-04-27T13:36:21;100621.33;;;15.63;62.56
61488;BME280;47351;53.326;-6.298;2023-04-27T13:39:11;100627.38;;;15.36;63.07
61488;BME280;47351;53.326;-6.298;2023-04-27T13:42:01;100619.95;;;15.75;63.09
61488;BME280;47351;53.326;-6.298;2023-04-27T13:44:51;100616.40;;;16.50;62.21
61488;BME280;47351;53.326;-6.298;2023-04-27T13:47:42;100610.31;;;17.43;60.32
61488;BME280;47351;53.326;-6.298;2023-04-27T13:50:32;100610.39;;;18.05;59.24
61488;BME280;47351;53.326;-6.298;2023-04-27T13:53:22;100609.73;;;17.94;59.16
61488;BME280;47351;53.326;-6.298;2023-04-27T13:56:14;100607.66;;;17.43;59.48
61488;BME280;47351;53.326;-6.298;2023-04-27T13:59:04;100605.61;;;17.01;59.56
61488;BME280;47351;53.326;-6.298;2023-04-27T14:01:54;100606.24;;;16.70;59.83
61488;BME280;47351;53.326;-6.298;2023-04-27T14:04:44;100603.29;;;16.54;60.48
61488;BME280;47351;53.326;-6.298;2023-04-27T14:07:35;100602.02;;;16.51;60.38
61488;BME280;47351;53.326;-6.298;2023-04-27T14:10:25;100600.98;;;16.49;60.71
61488;BME280;47351;53.326;-6.298;2023-04-27T14:13:16;100599.10;;;16.57;60.83
61488;BME280;47351;53.326;-6.298;2023-04-27T14:16:07;100598.98;;;16.56;60.87
61488;BME280;47351;53.326;-6.298;2023-04-27T14:18:57;100602.96;;;16.28;61.31
61488;BME280;47351;53.326;-6.298;2023-04-27T14:21:47;100604.40;;;16.07;62.03
61488;BME280;47351;53.326;-6.298;2023-04-27T14:24:38;100603.79;;;15.87;62.63
61488;BME280;47351;53.326;-6.298;2023-04-27T14:27:28;100604.30;;;15.69;62.77
61488;BME280;47351;53.326;-6.298;2023-04-27T14:30:19;100599.44;;;15.52;63.13
61488;BME280;47351;53.326;-6.298;2023-04-27T14:33:09;100600.70;;;15.29;63.46
61488;BME280;47351;53.326;-6.298;2023-04-27T14:35:59;100598.53;;;15.09;63.84
61488;BME280;47351;53.326;-6.298;2023-04-27T14:38:50;100598.00;;;15.09;64.18
61488;BME280;47351;53.326;-6.298;2023-04-27T14:41:40;100594.03;;;15.11;64.54
61488;BME280;47351;53.326;-6.298;2023-04-27T14:44:30;100595.27;;;15.22;64.65
61488;BME280;47351;53.326;-6.298;2023-04-27T14:47:20;100594.14;;;15.25;64.41
61488;BME280;47351;53.326;-6.298;2023-04-27T14:50:11;100594.33;;;15.20;64.77